HLE21 EGKR-EGKR

Flight info

Callsign HLE21
Flight time 0h 9m
Altitude 1500
Route OAT
Aircraft A169/L-V/N

Departure

Time 2026-04-22 20:21
Airport Redhill Aerodrome (EGKR)

Arrival

Time 2026-04-22 20:30
Airport Redhill Aerodrome (EGKR)
Time Latitude Longitude Altitude Speed Heading
2026-04-22 20:21 51.10119 -0.06952 1340 ft 139 kts 145°
2026-04-22 20:21 51.09248 -0.06251 1328 ft 139 kts 146°
2026-04-22 20:21 51.08379 -0.05548 1312 ft 139 kts 146°
2026-04-22 20:21 51.07514 -0.04852 1330 ft 138 kts 146°
2026-04-22 20:22 51.06916 -0.03775 1288 ft 131 kts 105°
2026-04-22 20:22 51.06831 -0.02337 1317 ft 127 kts 92°
2026-04-22 20:22 51.06779 -0.00908 1285 ft 130 kts 92°
2026-04-22 20:22 51.06771 0.00537 1278 ft 131 kts 84°
2026-04-22 20:23 51.06869 0.01966 1310 ft 129 kts 85°
2026-04-22 20:23 51.07005 0.03394 1306 ft 131 kts 75°
2026-04-22 20:23 51.07348 0.04734 1322 ft 130 kts 70°
2026-04-22 20:23 51.07700 0.06079 1296 ft 132 kts 69°
2026-04-22 20:24 51.08385 0.07139 1260 ft 142 kts 40°
2026-04-22 20:24 51.09244 0.07991 1258 ft 145 kts 36°
2026-04-22 20:24 51.10117 0.08810 1294 ft 145 kts 37°
2026-04-22 20:24 51.11071 0.09403 1274 ft 158 kts 12°
2026-04-22 20:25 51.12165 0.09375 1318 ft 154 kts
2026-04-22 20:25 51.13238 0.09357 1281 ft 156 kts
2026-04-22 20:25 51.14325 0.09354 1295 ft 156 kts
2026-04-22 20:25 51.15420 0.09355 1315 ft 155 kts
2026-04-22 20:26 51.16493 0.09361 1316 ft 155 kts
2026-04-22 20:26 51.17593 0.09364 1302 ft 157 kts
2026-04-22 20:26 51.18666 0.08999 1315 ft 163 kts 346°
2026-04-22 20:26 51.19734 0.08348 1308 ft 163 kts 346°
2026-04-22 20:27 51.20800 0.07688 1300 ft 164 kts 345°
2026-04-22 20:27 51.21638 0.06344 1314 ft 176 kts 304°
2026-04-22 20:27 51.22221 0.04650 1301 ft 178 kts 295°
2026-04-22 20:27 51.22456 0.02704 1305 ft 179 kts 274°
2026-04-22 20:28 51.22404 0.00725 1311 ft 178 kts 268°
2026-04-22 20:28 51.22332 -0.01240 1300 ft 178 kts 267°
2026-04-22 20:28 51.22266 -0.03240 1283 ft 178 kts 270°
2026-04-22 20:28 51.22221 -0.05198 1170 ft 177 kts 270°
2026-04-22 20:29 51.22217 -0.07152 942 ft 171 kts 271°
2026-04-22 20:29 51.22128 -0.08874 848 ft 158 kts 261°
2026-04-22 20:29 51.21914 -0.10506 679 ft 143 kts 261°
2026-04-22 20:29 51.21724 -0.12015 514 ft 133 kts 258°
2026-04-22 20:30 51.21473 -0.13318 352 ft 109 kts 259°
2026-04-22 20:30 51.21470 -0.14218 336 ft 35 kts 333°
2026-04-22 20:30 51.21537 -0.14203 248 ft 12 kts 357°